createdAt,value
2022-10-04T00:01:53.572Z,10.50
2022-10-04T00:04:29.004Z,10.50
2022-10-04T00:07:03.800Z,10.40
2022-10-04T00:09:38.315Z,10.40
2022-10-04T00:12:16.145Z,10.40
2022-10-04T00:14:47.733Z,10.30
2022-10-04T00:17:23.757Z,10.30
2022-10-04T00:19:56.385Z,10.20
2022-10-04T00:22:29.450Z,10.20
2022-10-04T00:25:36.222Z,10.10
2022-10-04T00:31:22.228Z,10.00
2022-10-04T00:33:56.159Z,10.00
2022-10-04T00:36:43.707Z,10.00
2022-10-04T00:39:54.973Z,10.00
2022-10-04T00:42:43.069Z,10.00
2022-10-04T00:45:27.517Z,9.90
2022-10-04T00:48:13.648Z,9.90
2022-10-04T00:50:47.981Z,9.90
2022-10-04T00:53:24.657Z,9.90
2022-10-04T00:55:59.262Z,9.80
2022-10-04T00:58:33.605Z,9.80
2022-10-04T01:01:06.350Z,9.90
2022-10-04T01:03:40.714Z,10.00
2022-10-04T01:06:14.039Z,10.00
2022-10-04T01:08:49.628Z,9.90
2022-10-04T01:11:23.833Z,9.90
2022-10-04T01:13:58.390Z,10.00
2022-10-04T01:16:33.465Z,10.00
2022-10-04T01:19:31.781Z,10.00
2022-10-04T01:22:11.864Z,9.90
2022-10-04T01:24:44.761Z,10.00
2022-10-04T01:27:40.014Z,10.00
2022-10-04T01:30:13.916Z,10.00
2022-10-04T01:32:45.668Z,10.00
2022-10-04T01:35:19.054Z,10.20
2022-10-04T01:37:50.394Z,10.20
2022-10-04T01:40:21.754Z,10.30
2022-10-04T01:42:56.359Z,10.40
2022-10-04T01:45:30.823Z,10.50
2022-10-04T01:48:04.772Z,10.50
2022-10-04T01:50:39.675Z,10.50
2022-10-04T01:53:16.587Z,10.50
2022-10-04T01:55:50.914Z,10.40
2022-10-04T01:58:25.249Z,10.40
2022-10-04T02:00:59.685Z,10.30
2022-10-04T02:03:33.961Z,10.30
2022-10-04T02:06:08.570Z,10.30
2022-10-04T02:08:43.557Z,10.30
2022-10-04T02:11:20.148Z,10.20
2022-10-04T02:13:53.743Z,10.10
2022-10-04T02:16:26.818Z,10.00
2022-10-04T02:18:59.343Z,10.00
2022-10-04T02:21:31.338Z,9.90
2022-10-04T02:24:03.235Z,9.90
2022-10-04T02:26:34.540Z,9.90
2022-10-04T02:29:05.926Z,9.80
2022-10-04T02:31:56.983Z,9.80
2022-10-04T02:34:28.383Z,9.70
2022-10-04T02:37:01.695Z,9.70
2022-10-04T02:39:36.624Z,9.70
2022-10-04T02:42:12.446Z,9.70
2022-10-04T02:44:46.068Z,9.70
2022-10-04T02:47:20.443Z,9.70
2022-10-04T02:49:55.069Z,9.70
2022-10-04T02:52:29.448Z,9.60
2022-10-04T02:55:04.283Z,9.60
2022-10-04T02:57:37.278Z,9.60
2022-10-04T03:00:18.984Z,9.50
2022-10-04T03:03:16.810Z,9.60
2022-10-04T03:05:56.137Z,9.60
2022-10-04T03:08:28.806Z,9.70
2022-10-04T03:11:02.544Z,9.70
2022-10-04T03:13:36.493Z,9.70
2022-10-04T03:16:09.189Z,9.80
2022-10-04T03:18:41.018Z,9.80
2022-10-04T03:21:15.488Z,9.80
2022-10-04T03:23:49.115Z,9.70
2022-10-04T03:26:28.225Z,9.70
2022-10-04T03:29:02.287Z,9.60
2022-10-04T03:31:34.466Z,9.60
2022-10-04T03:34:05.885Z,9.60
2022-10-04T03:36:37.435Z,9.60
2022-10-04T03:39:10.809Z,9.60
2022-10-04T03:41:44.765Z,9.60
2022-10-04T03:44:19.164Z,9.60
2022-10-04T03:46:50.312Z,9.60
2022-10-04T03:49:26.731Z,9.50
2022-10-04T03:51:59.484Z,9.60
2022-10-04T03:54:33.145Z,9.70
2022-10-04T03:57:06.270Z,9.70
2022-10-04T03:59:38.064Z,9.70
2022-10-04T04:02:14.771Z,9.80
2022-10-04T04:04:50.408Z,9.90
2022-10-04T04:07:26.273Z,9.80
2022-10-04T04:10:02.999Z,9.80
2022-10-04T04:12:38.467Z,9.80
2022-10-04T04:15:13.114Z,9.90
2022-10-04T04:17:46.813Z,9.90
2022-10-04T04:20:27.492Z,10.00
2022-10-04T04:23:04.146Z,10.00
2022-10-04T04:25:39.656Z,10.10
2022-10-04T04:28:19.766Z,10.10
2022-10-04T04:30:53.757Z,10.10
2022-10-04T04:33:29.986Z,10.20
2022-10-04T04:36:07.814Z,10.20
2022-10-04T04:38:40.853Z,10.10
2022-10-04T04:41:13.082Z,10.10
2022-10-04T04:43:46.189Z,10.10
2022-10-04T04:46:27.562Z,10.10
2022-10-04T04:48:53.441Z,10.10
2022-10-04T04:51:26.050Z,10.20
2022-10-04T04:53:58.143Z,10.20
2022-10-04T04:56:31.550Z,10.30
2022-10-04T04:59:06.570Z,10.30
2022-10-04T05:01:41.068Z,10.30
2022-10-04T05:04:21.191Z,10.30
2022-10-04T05:07:04.229Z,10.30
2022-10-04T05:09:38.305Z,10.20
2022-10-04T05:12:12.686Z,10.10
2022-10-04T05:14:48.344Z,9.90
2022-10-04T05:17:22.935Z,9.70
2022-10-04T05:19:56.863Z,9.60
2022-10-04T05:22:29.915Z,9.50
2022-10-04T05:25:04.259Z,9.40
2022-10-04T05:27:38.327Z,9.40
2022-10-04T05:30:15.566Z,9.30
2022-10-04T05:32:51.204Z,9.20
2022-10-04T05:35:24.297Z,9.10
2022-10-04T05:38:02.861Z,9.00
2022-10-04T05:40:42.725Z,8.90
2022-10-04T05:43:25.192Z,8.80
2022-10-04T05:46:26.837Z,8.80
2022-10-04T05:49:01.583Z,8.80
2022-10-04T05:51:37.574Z,8.80
2022-10-04T05:54:11.293Z,8.90
2022-10-04T05:57:15.802Z,8.90
2022-10-04T06:00:13.745Z,8.90
2022-10-04T06:03:10.839Z,9.00
2022-10-04T06:05:48.654Z,9.10
2022-10-04T06:08:31.662Z,9.20
2022-10-04T06:11:15.151Z,9.30
2022-10-04T06:14:00.988Z,9.30
2022-10-04T06:16:41.634Z,9.20
2022-10-04T06:19:57.808Z,9.20
2022-10-04T06:22:29.626Z,9.30
2022-10-04T06:25:04.080Z,9.50
2022-10-04T06:27:40.447Z,9.70
2022-10-04T06:30:16.263Z,9.80
2022-10-04T06:33:16.639Z,10.00
2022-10-04T06:36:18.353Z,10.30
2022-10-04T06:39:25.121Z,10.50
2022-10-04T06:42:38.439Z,10.40
2022-10-04T06:45:56.299Z,10.30
2022-10-04T06:48:43.333Z,10.20
2022-10-04T06:51:20.643Z,10.20
2022-10-04T06:53:58.927Z,10.20
2022-10-04T06:56:40.995Z,10.20
2022-10-04T06:59:25.813Z,10.30
2022-10-04T07:01:59.806Z,10.30
2022-10-04T07:05:03.168Z,10.40
2022-10-04T07:07:35.612Z,10.50
2022-10-04T07:10:21.421Z,10.60
2022-10-04T07:12:56.831Z,10.60
2022-10-04T07:15:31.302Z,10.80
2022-10-04T07:18:06.524Z,11.00
2022-10-04T07:20:39.249Z,11.10
2022-10-04T07:23:15.341Z,11.30
2022-10-04T07:25:50.557Z,11.40
2022-10-04T07:28:43.018Z,11.50
2022-10-04T07:31:17.857Z,11.70
2022-10-04T07:33:52.593Z,11.90
2022-10-04T07:36:28.231Z,11.90
2022-10-04T07:39:02.748Z,11.80
2022-10-04T07:41:37.717Z,11.80
2022-10-04T07:44:16.507Z,11.80
2022-10-04T07:46:51.016Z,11.90
2022-10-04T07:49:23.653Z,11.90
2022-10-04T07:52:19.023Z,11.90
2022-10-04T07:54:54.312Z,11.80
2022-10-04T07:57:28.782Z,11.90
2022-10-04T08:00:09.668Z,12.00
2022-10-04T08:02:46.861Z,12.00
2022-10-04T08:05:24.487Z,12.10
2022-10-04T08:08:11.251Z,12.20
2022-10-04T08:10:45.884Z,12.20
2022-10-04T08:13:22.306Z,12.30
2022-10-04T08:15:56.681Z,12.40
2022-10-04T08:18:35.089Z,12.60
2022-10-04T08:21:08.783Z,12.70
2022-10-04T08:23:59.545Z,12.70
2022-10-04T08:26:37.658Z,12.70
2022-10-04T08:29:47.141Z,12.90
2022-10-04T08:32:29.246Z,13.10
2022-10-04T08:35:16.351Z,13.10
2022-10-04T08:37:53.837Z,13.00
2022-10-04T08:40:47.491Z,13.00
2022-10-04T08:43:38.439Z,13.20
2022-10-04T08:46:23.342Z,13.20
2022-10-04T08:49:12.715Z,13.30
2022-10-04T08:52:09.177Z,13.30
2022-10-04T08:54:54.474Z,13.40
2022-10-04T08:58:24.324Z,13.30
2022-10-04T09:04:38.022Z,13.60
2022-10-04T09:07:22.921Z,13.60
2022-10-04T09:10:16.299Z,13.80
2022-10-04T09:13:01.029Z,13.90
2022-10-04T09:15:41.159Z,13.80
2022-10-04T09:18:25.582Z,14.00
2022-10-04T09:21:01.234Z,14.20
2022-10-04T09:24:01.056Z,14.30
2022-10-04T09:26:37.631Z,14.50
2022-10-04T09:29:17.170Z,14.50
2022-10-04T09:32:27.488Z,14.40
2022-10-04T09:35:45.402Z,14.60
2022-10-04T09:38:36.272Z,14.80
2022-10-04T09:41:26.855Z,14.70
2022-10-04T09:47:19.262Z,14.80
2022-10-04T09:49:56.549Z,14.80
2022-10-04T09:52:37.433Z,14.80
2022-10-04T09:55:32.408Z,14.90
2022-10-04T09:58:17.574Z,15.00
2022-10-04T10:00:51.839Z,15.10
2022-10-04T10:03:37.960Z,15.30
2022-10-04T10:06:45.418Z,15.40
2022-10-04T10:09:28.696Z,15.40
2022-10-04T10:12:20.220Z,15.50
2022-10-04T10:15:09.661Z,15.70
2022-10-04T10:17:45.118Z,16.10
2022-10-04T10:20:37.293Z,16.50
2022-10-04T10:23:18.554Z,16.50
2022-10-04T10:26:01.435Z,16.40
2022-10-04T10:28:43.684Z,16.40
2022-10-04T10:31:25.297Z,16.40
2022-10-04T10:34:18.832Z,16.40
2022-10-04T10:37:10.136Z,16.40
2022-10-04T10:40:17.357Z,16.40
2022-10-04T10:43:18.310Z,16.40
2022-10-04T10:46:20.443Z,16.30
2022-10-04T10:49:01.661Z,16.20
2022-10-04T10:51:49.973Z,16.20
2022-10-04T10:54:47.924Z,16.40
2022-10-04T10:57:26.239Z,16.50
2022-10-04T11:00:17.379Z,16.60
2022-10-04T11:03:32.053Z,16.90
2022-10-04T11:06:18.718Z,17.10
2022-10-04T11:09:19.595Z,17.30
2022-10-04T11:12:09.309Z,17.40
2022-10-04T11:15:08.997Z,17.10
2022-10-04T11:17:49.544Z,16.70
2022-10-04T11:20:44.115Z,16.80
2022-10-04T11:23:50.097Z,16.70
2022-10-04T11:27:01.382Z,16.70
2022-10-04T11:30:02.047Z,16.50
2022-10-04T11:33:02.399Z,16.10
2022-10-04T11:36:13.255Z,16.20
2022-10-04T11:39:01.237Z,16.20
2022-10-04T11:41:43.059Z,16.20
2022-10-04T11:44:27.841Z,16.30
2022-10-04T11:47:09.902Z,16.30
2022-10-04T11:49:52.656Z,16.20
2022-10-04T11:52:56.639Z,16.30
2022-10-04T11:55:57.395Z,16.20
2022-10-04T11:58:35.072Z,16.20
2022-10-04T12:01:27.326Z,16.00
2022-10-04T12:04:14.544Z,15.80
2022-10-04T12:06:53.924Z,15.70
2022-10-04T12:09:28.691Z,15.80
2022-10-04T12:12:39.753Z,15.90
2022-10-04T12:15:22.971Z,16.00
2022-10-04T12:18:43.469Z,16.10
2022-10-04T12:21:28.905Z,16.10
2022-10-04T12:24:11.712Z,16.20
2022-10-04T12:27:24.625Z,16.30
2022-10-04T12:30:17.703Z,16.30
2022-10-04T12:32:58.248Z,16.40
2022-10-04T12:35:35.532Z,16.40
2022-10-04T12:38:21.287Z,16.50
2022-10-04T12:40:56.392Z,16.40
2022-10-04T12:43:31.793Z,16.60
2022-10-04T12:46:11.420Z,16.60
2022-10-04T12:48:53.637Z,16.70
2022-10-04T12:51:34.264Z,16.60
2022-10-04T12:54:13.489Z,16.60
2022-10-04T12:56:50.370Z,16.60
2022-10-04T12:59:31.058Z,16.50
2022-10-04T13:02:08.216Z,16.50
2022-10-04T13:04:43.090Z,16.40
2022-10-04T13:07:34.258Z,16.50
2022-10-04T13:10:24.566Z,16.60
2022-10-04T13:13:25.638Z,16.60
2022-10-04T13:18:37.734Z,16.70
2022-10-04T13:21:12.043Z,16.70
2022-10-04T13:23:53.878Z,16.90
2022-10-04T13:26:34.211Z,16.90
2022-10-04T13:29:10.387Z,16.90
2022-10-04T13:31:45.544Z,16.90
2022-10-04T13:34:23.892Z,17.00
2022-10-04T13:37:05.243Z,17.00
2022-10-04T13:39:46.370Z,17.00
2022-10-04T13:42:26.660Z,17.10
2022-10-04T13:45:19.294Z,17.10
2022-10-04T13:48:12.721Z,17.10
2022-10-04T13:50:46.541Z,17.10
2022-10-04T13:53:42.955Z,17.10
2022-10-04T13:56:37.213Z,17.00
2022-10-04T13:59:14.321Z,17.10
2022-10-04T14:02:26.790Z,17.10
2022-10-04T14:05:38.360Z,17.00
2022-10-04T14:08:39.703Z,17.00
2022-10-04T14:11:30.097Z,17.00
2022-10-04T14:14:10.791Z,17.00
2022-10-04T14:17:06.781Z,17.00
2022-10-04T14:19:53.506Z,17.00
2022-10-04T14:22:53.777Z,17.00
2022-10-04T14:26:01.321Z,17.00
2022-10-04T14:29:13.601Z,17.00
2022-10-04T14:32:01.124Z,17.00
2022-10-04T14:34:56.973Z,17.10
2022-10-04T14:37:51.168Z,17.00
2022-10-04T14:44:10.330Z,16.90
2022-10-04T14:46:49.602Z,16.80
2022-10-04T14:49:25.881Z,16.80
2022-10-04T14:52:09.003Z,16.80
2022-10-04T14:54:47.336Z,16.70
2022-10-04T14:57:24.560Z,16.70
2022-10-04T15:00:08.591Z,16.70
2022-10-04T15:03:20.948Z,16.70
2022-10-04T15:06:34.900Z,16.60
2022-10-04T15:09:39.380Z,16.70
2022-10-04T15:15:48.854Z,16.60
2022-10-04T15:18:32.148Z,16.60
2022-10-04T15:21:07.510Z,16.50
2022-10-04T15:23:41.999Z,16.50
2022-10-04T15:26:52.238Z,16.50
2022-10-04T15:29:28.233Z,16.50
2022-10-04T15:32:07.322Z,16.40
2022-10-04T15:34:42.413Z,16.40
2022-10-04T15:37:25.733Z,16.30
2022-10-04T15:40:19.152Z,16.20
2022-10-04T15:43:02.261Z,16.20
2022-10-04T15:46:20.091Z,16.10
2022-10-04T15:52:12.951Z,16.10
2022-10-04T15:55:07.744Z,15.90
2022-10-04T15:57:48.085Z,15.90
2022-10-04T16:00:25.915Z,15.80
2022-10-04T16:03:09.382Z,15.80
2022-10-04T16:05:44.862Z,15.80
2022-10-04T16:08:41.749Z,15.70
2022-10-04T16:11:33.317Z,15.70
2022-10-04T16:14:29.521Z,15.70
2022-10-04T16:17:34.449Z,15.60
2022-10-04T16:20:33.288Z,15.50
2022-10-04T16:23:30.830Z,15.40
2022-10-04T16:26:05.257Z,15.30
2022-10-04T16:29:05.649Z,15.20
2022-10-04T16:31:47.717Z,15.20
2022-10-04T16:34:37.110Z,15.00
2022-10-04T16:37:16.554Z,14.80
2022-10-04T16:40:03.094Z,14.70
2022-10-04T16:42:44.475Z,14.70
2022-10-04T16:48:33.625Z,14.40
2022-10-04T16:51:42.261Z,14.30
2022-10-04T16:54:37.302Z,14.20
2022-10-04T16:57:22.584Z,14.10
2022-10-04T16:59:56.905Z,14.00
2022-10-04T17:03:01.386Z,14.00
2022-10-04T17:05:58.558Z,13.90
2022-10-04T17:11:55.393Z,13.70
2022-10-04T17:14:50.545Z,13.50
2022-10-04T17:17:29.949Z,13.50
2022-10-04T17:20:05.747Z,13.40
2022-10-04T17:22:43.497Z,13.30
2022-10-04T17:25:28.195Z,13.20
2022-10-04T17:28:02.426Z,13.20
2022-10-04T17:30:45.377Z,13.20
2022-10-04T17:33:26.851Z,13.30
2022-10-04T17:36:14.141Z,13.30
2022-10-04T17:38:54.073Z,13.30
2022-10-04T17:41:30.878Z,13.20
2022-10-04T17:44:14.186Z,13.10
2022-10-04T17:46:48.978Z,13.10
2022-10-04T17:49:42.686Z,13.10
2022-10-04T17:52:52.812Z,13.10
2022-10-04T17:55:26.112Z,13.00
2022-10-04T17:58:01.878Z,13.10
2022-10-04T18:00:49.681Z,13.00
2022-10-04T18:03:23.444Z,12.90
2022-10-04T18:05:57.806Z,12.80
2022-10-04T18:08:41.876Z,12.70
2022-10-04T18:11:21.564Z,12.60
2022-10-04T18:13:57.700Z,12.50
2022-10-04T18:16:32.093Z,12.50
2022-10-04T18:19:10.956Z,12.40
2022-10-04T18:21:50.095Z,12.40
2022-10-04T18:24:25.411Z,12.40
2022-10-04T18:27:00.645Z,12.40
2022-10-04T18:29:39.539Z,12.30
2022-10-04T18:32:20.077Z,12.30
2022-10-04T18:34:56.646Z,12.20
2022-10-04T18:37:33.742Z,12.20
2022-10-04T18:40:15.823Z,12.10
2022-10-04T18:42:53.026Z,12.20
2022-10-04T18:45:28.307Z,12.20
2022-10-04T18:48:01.826Z,12.30
2022-10-04T18:50:38.243Z,12.40
2022-10-04T18:53:36.033Z,12.40
2022-10-04T18:56:09.249Z,12.30
2022-10-04T18:59:08.491Z,12.20
2022-10-04T19:02:03.037Z,12.10
2022-10-04T19:04:48.429Z,11.90
2022-10-04T19:07:22.834Z,11.80
2022-10-04T19:10:04.513Z,11.80
2022-10-04T19:12:41.358Z,11.80
2022-10-04T19:15:39.752Z,11.80
2022-10-04T19:18:19.897Z,11.70
2022-10-04T19:20:54.769Z,11.60
2022-10-04T19:23:30.838Z,11.60
2022-10-04T19:26:30.518Z,11.60
2022-10-04T19:28:39.917Z,11.60
2022-10-04T19:31:19.592Z,11.60
2022-10-04T19:33:54.059Z,11.70
2022-10-04T19:36:38.233Z,11.60
2022-10-04T19:39:27.714Z,11.50
2022-10-04T19:42:01.815Z,11.40
2022-10-04T19:44:57.617Z,11.40
2022-10-04T19:47:39.719Z,11.30
2022-10-04T19:50:23.722Z,11.30
2022-10-04T19:52:59.337Z,11.20
2022-10-04T19:55:43.833Z,11.30
2022-10-04T19:58:33.257Z,11.50
2022-10-04T20:01:13.378Z,11.70
2022-10-04T20:03:45.808Z,11.90
2022-10-04T20:06:24.860Z,12.10
2022-10-04T20:09:02.763Z,12.10
2022-10-04T20:11:50.142Z,12.00
2022-10-04T20:14:48.060Z,12.00
2022-10-04T20:17:35.494Z,12.00
2022-10-04T20:20:07.056Z,11.80
2022-10-04T20:22:58.793Z,11.70
2022-10-04T20:26:06.324Z,11.60
2022-10-04T20:28:44.685Z,11.50
2022-10-04T20:34:38.009Z,11.30
2022-10-04T20:37:10.772Z,11.20
2022-10-04T20:39:59.692Z,11.10
2022-10-04T20:42:36.957Z,11.10
2022-10-04T20:45:39.092Z,11.00
2022-10-04T20:48:15.242Z,10.80
2022-10-04T20:50:48.456Z,10.90
2022-10-04T20:53:22.975Z,10.90
2022-10-04T20:56:11.843Z,10.90
2022-10-04T20:58:44.208Z,11.00
2022-10-04T21:01:49.090Z,10.90
2022-10-04T21:04:25.412Z,10.80
2022-10-04T21:06:58.591Z,10.80
2022-10-04T21:09:32.097Z,10.80
2022-10-04T21:12:04.465Z,10.70
2022-10-04T21:14:37.284Z,10.80
2022-10-04T21:17:29.003Z,10.70
2022-10-04T21:20:00.373Z,10.70
2022-10-04T21:22:41.957Z,10.60
2022-10-04T21:25:31.892Z,10.60
2022-10-04T21:28:39.111Z,10.60
2022-10-04T21:31:10.483Z,10.60
2022-10-04T21:33:42.158Z,10.70
2022-10-04T21:36:13.647Z,10.80
2022-10-04T21:38:44.813Z,11.00
2022-10-04T21:41:16.234Z,11.00
2022-10-04T21:43:47.458Z,11.00
2022-10-04T21:46:20.673Z,10.90
2022-10-04T21:48:52.154Z,10.90
2022-10-04T21:51:23.290Z,10.70
2022-10-04T21:53:54.926Z,10.70
2022-10-04T21:56:26.532Z,10.60
2022-10-04T21:58:57.938Z,10.60
2022-10-04T22:01:29.308Z,10.50
2022-10-04T22:04:00.779Z,10.40
2022-10-04T22:06:31.966Z,10.40
2022-10-04T22:09:03.554Z,10.40
2022-10-04T22:11:34.800Z,10.30
2022-10-04T22:14:06.028Z,10.30
2022-10-04T22:16:37.560Z,10.30
2022-10-04T22:19:09.957Z,10.30
2022-10-04T22:21:41.174Z,10.30
2022-10-04T22:24:15.945Z,10.30
2022-10-04T22:26:47.707Z,10.40
2022-10-04T22:29:22.768Z,10.50
2022-10-04T22:31:54.351Z,10.60
2022-10-04T22:34:25.854Z,10.70
2022-10-04T22:36:57.271Z,10.90
2022-10-04T22:39:30.358Z,10.90
2022-10-04T22:42:02.742Z,10.90
2022-10-04T22:44:36.716Z,10.80
2022-10-04T22:47:12.909Z,10.70
2022-10-04T22:49:47.581Z,10.60
2022-10-04T22:52:22.010Z,10.60
2022-10-04T22:54:54.794Z,10.50
2022-10-04T22:57:26.518Z,10.50
2022-10-04T22:59:57.901Z,10.40
2022-10-04T23:02:32.264Z,10.40
2022-10-04T23:05:11.141Z,10.50
2022-10-04T23:07:42.893Z,10.50
2022-10-04T23:10:16.629Z,10.50
2022-10-04T23:12:49.184Z,10.40
2022-10-04T23:15:21.542Z,10.30
2022-10-04T23:17:55.713Z,10.30
2022-10-04T23:20:29.336Z,10.30
2022-10-04T23:23:01.639Z,10.30
2022-10-04T23:25:33.873Z,10.40
2022-10-04T23:28:10.095Z,10.40
2022-10-04T23:30:42.290Z,10.50
2022-10-04T23:33:18.031Z,10.50
2022-10-04T23:35:50.462Z,10.40
2022-10-04T23:38:24.340Z,10.50
2022-10-04T23:40:56.175Z,10.50
2022-10-04T23:43:30.596Z,10.50
2022-10-04T23:46:02.446Z,10.50
2022-10-04T23:48:33.733Z,10.50
2022-10-04T23:51:05.373Z,10.50
2022-10-04T23:53:36.712Z,10.60
2022-10-04T23:56:12.003Z,10.60
2022-10-04T23:58:44.060Z,10.50
